Time;durP1;ratioP1;P1;durP2;ratioP2;P2;SDS_P1;SDS_P2;PMS_P1;PMS_P2;Temp;Humidity;BMP_temperature;BMP_pressure;BME280_temperature;BME280_humidity;BME280_pressure;Samples;Min_cycle;Max_cycle;Signal;HPM_P1;HPM_P2
2023/11/21 00:00:30;;;;;;;3.65;1.30;;;;;;;5.93;100.00;102165.97;5037274;28;20037;-86
2023/11/21 00:02:57;;;;;;;5.22;1.27;;;;;;;5.94;100.00;102161.47;5037320;28;20056;-86
2023/11/21 00:05:23;;;;;;;2.13;1.10;;;;;;;6.03;100.00;102175.97;5037492;28;20040;-86
2023/11/21 00:07:48;;;;;;;9.63;1.52;;;;;;;5.98;100.00;102184.31;5036985;28;20021;-86
2023/11/21 00:10:15;;;;;;;3.60;1.58;;;;;;;6.03;100.00;102190.16;5020887;28;20618;-86
2023/11/21 00:12:41;;;;;;;1.42;0.70;;;;;;;6.18;100.00;102190.03;5053952;28;20028;-87
2023/11/21 00:15:12;;;;;;;2.72;1.38;;;;;;;6.31;100.00;102194.34;5037455;28;20082;-87
2023/11/21 00:17:38;;;;;;;4.55;0.95;;;;;;;6.41;100.00;102188.34;5037596;28;20032;-86
2023/11/21 00:20:06;;;;;;;6.80;1.30;;;;;;;6.38;100.00;102194.75;5037357;28;20593;-87
2023/11/21 00:22:35;;;;;;;5.35;1.35;;;;;;;6.39;100.00;102204.47;5037396;28;20033;-86
2023/11/21 00:25:03;;;;;;;9.23;1.70;;;;;;;6.38;100.00;102197.44;5020788;28;20475;-85
2023/11/21 00:27:30;;;;;;;1.50;1.02;;;;;;;6.28;100.00;102199.91;5037739;28;20087;-86
2023/11/21 00:29:56;;;;;;;9.40;1.10;;;;;;;6.15;100.00;102204.47;5020390;28;20392;-86
2023/11/21 00:32:22;;;;;;;3.13;0.93;;;;;;;6.14;100.00;102203.59;5037291;28;20044;-86
2023/11/21 00:34:47;;;;;;;9.45;1.30;;;;;;;6.16;100.00;102207.00;5020514;28;20442;-86
2023/11/21 00:37:14;;;;;;;4.15;0.95;;;;;;;6.09;100.00;102207.59;5020364;28;20025;-86
2023/11/21 00:39:40;;;;;;;7.93;1.40;;;;;;;6.09;100.00;102203.09;5052867;28;20096;-86
2023/11/21 00:42:05;;;;;;;1.50;0.95;;;;;;;6.04;100.00;102213.25;5036394;28;20061;-86
2023/11/21 00:44:31;;;;;;;3.45;1.10;;;;;;;6.05;100.00;102217.63;5020502;28;20037;-86
2023/11/21 00:47:00;;;;;;;7.38;1.38;;;;;;;6.08;100.00;102224.53;5037539;28;20102;-86
2023/11/21 00:49:25;;;;;;;3.90;0.90;;;;;;;6.18;100.00;102222.06;5052792;28;20033;-86
2023/11/21 00:51:51;;;;;;;9.77;1.63;;;;;;;6.15;100.00;102216.00;5020422;28;20086;-85
2023/11/21 00:54:19;;;;;;;6.22;1.10;;;;;;;6.09;100.00;102227.13;5053145;28;20036;-86
2023/11/21 00:56:47;;;;;;;8.40;1.67;;;;;;;5.99;100.00;102214.53;5020579;28;20033;-86
2023/11/21 00:59:13;;;;;;;7.90;1.45;;;;;;;6.07;100.00;102217.50;5036716;28;20060;-86
2023/11/21 01:01:39;;;;;;;7.63;1.25;;;;;;;6.08;100.00;102214.72;5036174;28;20111;-86
2023/11/21 01:04:06;;;;;;;4.30;1.25;;;;;;;6.15;100.00;102216.00;5019841;28;20040;-86
2023/11/21 01:06:32;;;;;;;3.22;1.05;;;;;;;6.28;100.00;102210.59;5052866;28;20303;-86
2023/11/21 01:08:58;;;;;;;12.15;2.08;;;;;;;6.28;100.00;102202.59;5036285;28;20043;-85
2023/11/21 01:11:23;;;;;;;3.63;0.95;;;;;;;6.14;100.00;102200.94;5019840;28;20115;-86
2023/11/21 01:13:49;;;;;;;4.22;1.10;;;;;;;6.13;100.00;102201.88;5036188;28;20029;-86
2023/11/21 01:16:15;;;;;;;3.38;0.90;;;;;;;6.18;100.00;102204.22;5019670;28;20087;-86
2023/11/21 01:18:40;;;;;;;5.85;1.20;;;;;;;6.15;100.00;102205.31;5036139;28;20037;-87
2023/11/21 01:21:07;;;;;;;6.30;1.20;;;;;;;6.10;100.00;102209.28;5019942;28;20036;-87
2023/11/21 01:23:33;;;;;;;9.57;1.60;;;;;;;5.89;100.00;102199.13;5020128;28;20136;-86
2023/11/21 01:25:58;;;;;;;4.85;1.30;;;;;;;5.74;100.00;102210.91;5036362;28;20028;-86
2023/11/21 01:28:24;;;;;;;9.43;1.45;;;;;;;5.69;100.00;102216.59;5019007;28;20059;-87
2023/11/21 01:30:50;;;;;;;6.53;1.15;;;;;;;5.60;100.00;102219.88;5019521;28;20399;-87
2023/11/21 01:33:15;;;;;;;6.15;1.27;;;;;;;5.40;100.00;102218.63;5019509;28;20029;-87
2023/11/21 01:35:42;;;;;;;4.55;0.85;;;;;;;5.32;100.00;102220.97;5019564;28;20124;-86
2023/11/21 01:38:08;;;;;;;5.90;1.27;;;;;;;5.24;100.00;102237.50;5052274;28;20040;-85
2023/11/21 01:40:34;;;;;;;8.82;1.15;;;;;;;5.24;100.00;102233.97;5052015;28;20033;-86
2023/11/21 01:43:03;;;;;;;5.35;1.30;;;;;;;5.03;100.00;102239.81;5052453;28;20029;-87
2023/11/21 01:45:30;;;;;;;5.63;1.02;;;;;;;4.82;100.00;102242.09;5020750;28;20043;-87
2023/11/21 01:47:56;;;;;;;6.85;1.23;;;;;;;4.85;100.00;102241.88;5052006;28;20037;-86
2023/11/21 01:50:22;;;;;;;9.63;1.48;;;;;;;4.96;100.00;102246.50;5019471;28;20047;-87
2023/11/21 01:52:48;;;;;;;4.20;1.20;;;;;;;5.18;100.00;102245.91;5019226;28;20033;-86
2023/11/21 01:55:20;;;;;;;6.97;1.50;;;;;;;5.24;100.00;102245.50;5052371;28;20024;-86
2023/11/21 01:57:48;;;;;;;7.55;1.45;;;;;;;5.20;100.00;102243.97;5052251;28;20025;-86
2023/11/21 02:00:19;;;;;;;5.30;1.42;;;;;;;5.12;100.00;102243.66;5019344;28;20047;-86
2023/11/21 02:02:46;;;;;;;5.57;1.40;;;;;;;5.01;100.00;102248.88;5036103;28;20036;-86
2023/11/21 02:05:15;;;;;;;8.93;1.95;;;;;;;4.93;100.00;102244.03;5023040;28;20112;-86
2023/11/21 02:07:47;;;;;;;8.38;1.67;;;;;;;5.21;100.00;102242.16;5023669;28;20043;-86
2023/11/21 02:10:16;;;;;;;4.63;1.20;;;;;;;5.28;100.00;102243.47;5040907;28;20037;-86
2023/11/21 02:12:44;;;;;;;7.78;1.23;;;;;;;5.33;100.00;102248.50;5039285;28;20041;-86
2023/11/21 02:15:23;;;;;;;6.95;1.85;;;;;;;5.33;100.00;102251.16;5039593;28;20037;-86
2023/11/21 02:17:51;;;;;;;5.93;1.23;;;;;;;5.27;100.00;102253.28;5040661;28;20037;-87
2023/11/21 02:20:17;;;;;;;7.53;1.10;;;;;;;5.15;100.00;102251.44;5039776;28;20028;-87
2023/11/21 02:22:57;;;;;;;8.40;1.20;;;;;;;5.16;100.00;102257.63;5039093;28;20486;-86
2023/11/21 02:25:31;;;;;;;7.25;1.05;;;;;;;5.13;100.00;102263.16;5055523;28;20521;-86
2023/11/21 02:28:01;;;;;;;7.57;1.20;;;;;;;5.05;100.00;102266.34;5039054;28;20041;-86
2023/11/21 02:30:27;;;;;;;5.22;1.30;;;;;;;4.94;100.00;102268.88;5022928;28;20179;-86
2023/11/21 02:32:54;;;;;;;4.63;1.17;;;;;;;4.77;100.00;102272.69;5055299;28;20030;-86
2023/11/21 02:35:23;;;;;;;7.72;1.40;;;;;;;4.56;100.00;102282.91;5022515;28;20032;-87
2023/11/21 02:37:49;;;;;;;8.95;1.25;;;;;;;4.36;100.00;102292.19;5039720;28;20063;-86
2023/11/21 02:40:18;;;;;;;5.97;1.13;;;;;;;4.23;100.00;102294.75;5039224;28;20033;-85
2023/11/21 02:42:44;;;;;;;6.10;2.15;;;;;;;4.47;100.00;102299.47;5055549;28;20037;-87
2023/11/21 02:45:14;;;;;;;8.65;1.50;;;;;;;4.67;100.00;102298.22;5022425;28;20037;-86
2023/11/21 02:47:43;;;;;;;10.10;1.33;;;;;;;4.85;100.00;102299.66;5055700;28;20048;-86
2023/11/21 02:50:08;;;;;;;5.47;1.30;;;;;;;4.91;100.00;102309.91;5022717;28;20120;-86
2023/11/21 02:52:37;;;;;;;6.18;1.30;;;;;;;4.93;100.00;102300.03;5038772;28;20124;-86
2023/11/21 02:55:03;;;;;;;6.38;1.25;;;;;;;4.97;100.00;102306.84;5055118;28;20037;-86
2023/11/21 02:57:29;;;;;;;5.25;1.20;;;;;;;4.78;100.00;102315.19;5055133;28;20043;-86
2023/11/21 02:59:55;;;;;;;6.85;1.27;;;;;;;4.80;100.00;102321.28;5038613;28;20036;-86
2023/11/21 03:02:22;;;;;;;3.88;1.20;;;;;;;4.91;100.00;102325.91;5038843;28;20021;-86
2023/11/21 03:04:49;;;;;;;7.22;1.25;;;;;;;5.02;100.00;102330.53;5039046;28;20029;-86
2023/11/21 03:07:15;;;;;;;9.77;1.17;;;;;;;5.03;100.00;102322.44;5038605;28;20430;-86
2023/11/21 03:09:41;;;;;;;5.95;1.75;;;;;;;5.00;100.00;102321.78;5038320;28;20060;-86
2023/11/21 03:12:08;;;;;;;6.93;1.40;;;;;;;4.79;100.00;102324.91;5038395;28;20063;-86
2023/11/21 03:14:38;;;;;;;7.13;1.20;;;;;;;4.62;100.00;102325.13;5038323;28;20115;-87
2023/11/21 03:17:04;;;;;;;8.25;1.15;;;;;;;4.57;100.00;102330.75;5054321;28;20120;-85
2023/11/21 03:19:31;;;;;;;5.43;1.13;;;;;;;4.52;100.00;102329.34;5038597;28;20051;-87
2023/11/21 03:21:57;;;;;;;4.85;1.30;;;;;;;4.49;100.00;102333.06;5021806;28;20120;-86
2023/11/21 03:24:22;;;;;;;6.13;1.77;;;;;;;4.49;100.00;102334.88;5022014;28;20037;-86
2023/11/21 03:26:49;;;;;;;4.80;1.23;;;;;;;4.47;100.00;102339.44;5038309;28;20044;-86
2023/11/21 03:29:17;;;;;;;4.43;1.23;;;;;;;4.48;100.00;102333.16;5038238;28;20123;-86
2023/11/21 03:31:43;;;;;;;7.90;1.25;;;;;;;4.47;100.00;102336.75;5053486;28;20430;-87
2023/11/21 03:34:26;;;;;;;3.08;1.13;;;;;;;4.43;100.00;102348.59;5054520;28;20028;-85
2023/11/21 03:36:52;;;;;;;6.07;1.23;;;;;;;4.42;100.00;102361.06;5022122;28;20047;-85
2023/11/21 03:39:20;;;;;;;4.45;1.20;;;;;;;4.46;100.00;102356.38;5021599;28;20041;-86
2023/11/21 03:41:46;;;;;;;6.25;1.05;;;;;;;4.54;100.00;102359.41;5037797;28;20371;-84
2023/11/21 03:44:12;;;;;;;7.35;1.20;;;;;;;4.57;100.00;102356.53;5037636;28;20483;-85
2023/11/21 03:46:38;;;;;;;3.22;0.88;;;;;;;4.68;100.00;102369.19;5021681;28;20033;-85
2023/11/21 03:49:03;;;;;;;4.65;1.30;;;;;;;4.77;100.00;102358.78;5021478;28;20039;-85
2023/11/21 03:51:33;;;;;;;5.88;1.08;;;;;;;4.89;100.00;102362.47;5053997;28;20082;-84
2023/11/21 03:54:18;;;;;;;4.68;1.60;;;;;;;5.01;100.00;102371.50;5026953;28;20033;-85
2023/11/21 03:56:44;;;;;;;7.45;1.30;;;;;;;5.05;100.00;102360.53;5021550;28;20036;-85
2023/11/21 03:59:17;;;;;;;7.07;1.23;;;;;;;5.15;100.00;102366.09;5021409;28;20463;-85
2023/11/21 04:01:43;;;;;;;8.05;1.10;;;;;;;5.26;100.00;102366.22;5037386;28;20039;-84
2023/11/21 04:04:08;;;;;;;4.50;1.00;;;;;;;5.37;100.00;102367.34;5020828;28;20467;-85
2023/11/21 04:06:39;;;;;;;11.43;1.13;;;;;;;5.45;100.00;102371.22;5021289;28;20484;-85
2023/11/21 04:09:04;;;;;;;8.15;1.02;;;;;;;5.49;100.00;102364.72;5037777;28;20531;-86
2023/11/21 04:11:30;;;;;;;10.70;1.48;;;;;;;5.47;100.00;102363.09;5020850;28;20036;-85
2023/11/21 04:13:56;;;;;;;7.97;1.40;;;;;;;5.39;100.00;102370.75;5037544;28;20033;-84
2023/11/21 04:16:22;;;;;;;2.80;0.95;;;;;;;5.26;100.00;102376.91;5021169;28;20040;-85
2023/11/21 04:18:47;;;;;;;4.28;1.20;;;;;;;5.24;100.00;102386.00;5054194;28;20075;-85
2023/11/21 04:21:13;;;;;;;5.55;1.30;;;;;;;5.23;100.00;102376.25;5020867;28;20036;-84
2023/11/21 04:23:39;;;;;;;6.05;1.05;;;;;;;5.27;100.00;102372.44;5020856;28;20037;-85
2023/11/21 04:26:06;;;;;;;7.65;1.40;;;;;;;5.34;100.00;102372.88;5020414;28;20035;-85
2023/11/21 04:28:32;;;;;;;5.97;0.90;;;;;;;5.24;100.00;102376.19;5036840;28;20040;-85
2023/11/21 04:30:57;;;;;;;10.15;1.20;;;;;;;5.12;100.00;102374.31;5037330;28;20074;-85
2023/11/21 04:33:23;;;;;;;5.22;1.05;;;;;;;5.01;100.00;102366.16;5020565;28;20090;-84
2023/11/21 04:35:49;;;;;;;6.72;1.10;;;;;;;4.95;100.00;102369.19;5036943;28;20032;-84
2023/11/21 04:38:14;;;;;;;8.30;1.50;;;;;;;4.85;100.00;102371.63;5036500;28;20024;-85
2023/11/21 04:40:40;;;;;;;3.88;0.88;;;;;;;4.79;100.00;102380.88;5052665;28;20468;-85
2023/11/21 04:43:05;;;;;;;4.97;1.00;;;;;;;4.76;100.00;102378.41;5053117;28;20031;-85
2023/11/21 04:45:31;;;;;;;2.72;0.90;;;;;;;4.72;100.00;102395.53;5021163;28;20529;-85
2023/11/21 04:47:57;;;;;;;4.82;1.23;;;;;;;4.69;100.00;102398.41;5021008;28;20426;-85
2023/11/21 04:50:22;;;;;;;4.57;1.20;;;;;;;4.59;100.00;102400.78;5036343;28;20083;-84
2023/11/21 04:52:48;;;;;;;6.90;1.08;;;;;;;4.49;100.00;102404.13;5053330;28;20036;-84
2023/11/21 04:55:15;;;;;;;4.70;0.90;;;;;;;4.39;100.00;102407.38;5036264;28;20029;-85
2023/11/21 04:57:45;;;;;;;11.32;1.48;;;;;;;4.28;100.00;102419.63;5036576;28;20033;-85
2023/11/21 05:00:12;;;;;;;6.28;1.30;;;;;;;4.15;100.00;102420.41;5036620;28;20540;-86
2023/11/21 05:02:38;;;;;;;2.60;0.90;;;;;;;3.97;100.00;102419.69;5020098;28;20178;-88
2023/11/21 05:05:05;;;;;;;5.30;0.85;;;;;;;3.87;100.00;102428.31;5020057;28;20075;-85
2023/11/21 05:07:32;;;;;;;6.10;1.10;;;;;;;3.81;100.00;102436.66;5053054;28;20037;-85
2023/11/21 05:09:58;;;;;;;5.85;1.02;;;;;;;3.70;100.00;102424.81;5035792;28;20388;-85
2023/11/21 05:12:27;;;;;;;9.73;1.48;;;;;;;3.69;100.00;102447.06;5036229;28;20134;-85
2023/11/21 05:14:52;;;;;;;7.22;1.02;;;;;;;3.61;100.00;102446.66;5036159;28;20123;-84
2023/11/21 05:17:18;;;;;;;5.00;1.10;;;;;;;3.60;100.00;102446.75;5019573;28;20574;-84
2023/11/21 05:19:45;;;;;;;4.03;0.95;;;;;;;3.70;100.00;102455.91;5019674;28;20044;-85
2023/11/21 05:22:12;;;;;;;2.22;0.90;;;;;;;3.76;100.00;102450.25;5020321;28;20487;-86
2023/11/21 05:24:39;;;;;;;8.75;1.25;;;;;;;3.78;100.00;102453.66;5019744;28;20086;-86
2023/11/21 05:27:04;;;;;;;3.13;1.02;;;;;;;3.84;100.00;102440.00;5019848;28;20033;-85
2023/11/21 05:29:31;;;;;;;6.35;1.00;;;;;;;3.97;100.00;102450.78;5053702;28;20040;-85
2023/11/21 05:31:56;;;;;;;5.70;1.00;;;;;;;3.99;100.00;102445.34;5019565;28;20052;-85
2023/11/21 05:34:23;;;;;;;2.28;0.82;;;;;;;4.02;100.00;102456.66;5035956;28;20037;-85
2023/11/21 05:36:50;;;;;;;3.53;0.90;;;;;;;3.96;100.00;102446.38;5052875;28;20587;-85
2023/11/21 05:39:17;;;;;;;3.38;0.93;;;;;;;3.86;100.00;102450.53;5035009;28;20033;-84
2023/11/21 05:41:43;;;;;;;3.15;0.93;;;;;;;3.80;100.00;102457.09;5019511;28;20037;-86
2023/11/21 05:44:09;;;;;;;3.17;0.88;;;;;;;3.74;100.00;102457.44;5019574;28;20044;-85
2023/11/21 05:46:34;;;;;;;6.95;1.33;;;;;;;3.73;100.00;102456.59;5019159;28;20036;-85
2023/11/21 05:49:00;;;;;;;2.17;0.77;;;;;;;3.70;100.00;102458.56;5019355;28;20033;-85
2023/11/21 05:51:26;;;;;;;3.13;1.20;;;;;;;3.57;100.00;102458.41;5019389;28;20033;-84
2023/11/21 05:53:51;;;;;;;10.38;2.03;;;;;;;3.46;100.00;102459.03;5019151;28;20079;-85
2023/11/21 05:56:18;;;;;;;9.65;1.20;;;;;;;3.49;100.00;102456.22;5019042;28;20033;-85
2023/11/21 05:58:44;;;;;;;8.65;1.17;;;;;;;3.48;100.00;102453.63;5036008;28;20068;-85
2023/11/21 06:01:12;;;;;;;2.88;0.90;;;;;;;3.43;100.00;102461.88;5019542;28;20067;-85
2023/11/21 06:03:38;;;;;;;6.18;1.17;;;;;;;3.42;100.00;102459.31;5019874;28;20467;-85
2023/11/21 06:06:04;;;;;;;7.30;1.40;;;;;;;3.39;100.00;102459.50;5019365;28;20064;-85
2023/11/21 06:08:30;;;;;;;7.68;1.25;;;;;;;3.38;100.00;102460.41;5036347;28;20041;-85
2023/11/21 06:10:56;;;;;;;3.25;0.88;;;;;;;3.35;100.00;102449.97;5036157;28;20051;-85
2023/11/21 06:13:24;;;;;;;2.30;0.93;;;;;;;3.42;100.00;102452.19;5035257;28;20025;-85
2023/11/21 06:15:52;;;;;;;3.80;0.85;;;;;;;3.46;100.00;102451.06;5019369;28;20033;-86
2023/11/21 06:18:20;;;;;;;4.07;1.00;;;;;;;3.45;100.00;102449.34;5051955;28;20025;-85
2023/11/21 06:20:46;;;;;;;1.30;0.85;;;;;;;3.47;100.00;102455.44;5019258;28;20486;-85
2023/11/21 06:23:12;;;;;;;8.20;1.00;;;;;;;3.54;100.00;102458.59;5035344;28;20036;-85
2023/11/21 06:25:40;;;;;;;6.85;1.00;;;;;;;3.63;100.00;102458.06;5019222;28;20083;-85
2023/11/21 06:28:06;;;;;;;6.32;1.13;;;;;;;3.74;100.00;102460.09;5019622;28;20485;-84
2023/11/21 06:30:32;;;;;;;2.40;0.85;;;;;;;3.80;100.00;102458.88;5035443;28;20025;-85
2023/11/21 06:32:57;;;;;;;2.75;1.13;;;;;;;3.86;100.00;102471.81;5035508;28;20478;-85
2023/11/21 06:35:23;;;;;;;5.45;1.00;;;;;;;3.88;100.00;102469.94;5018911;28;20395;-85
2023/11/21 06:37:49;;;;;;;6.40;1.08;;;;;;;3.91;100.00;102469.75;5019076;28;20120;-85
2023/11/21 06:40:18;;;;;;;2.58;1.00;;;;;;;3.97;100.00;102474.72;5018692;28;20140;-86
2023/11/21 06:42:44;;;;;;;2.40;1.02;;;;;;;4.06;100.00;102465.34;5035665;28;20044;-86
2023/11/21 06:45:11;;;;;;;4.90;0.80;;;;;;;4.04;100.00;102467.22;5019151;28;20041;-85
2023/11/21 06:47:37;;;;;;;3.58;1.15;;;;;;;3.92;100.00;102467.00;5051638;28;20025;-84
2023/11/21 06:50:04;;;;;;;7.38;1.20;;;;;;;3.81;100.00;102472.13;5037187;28;20105;-85
2023/11/21 06:52:29;;;;;;;4.15;1.10;;;;;;;3.79;100.00;102473.16;5022142;28;20437;-85
2023/11/21 06:54:55;;;;;;;7.07;1.25;;;;;;;3.71;100.00;102476.25;5022346;28;20459;-84
2023/11/21 06:57:23;;;;;;;3.20;0.80;;;;;;;3.72;100.00;102483.28;5038899;28;20387;-85
2023/11/21 06:59:50;;;;;;;2.15;0.80;;;;;;;3.70;100.00;102478.03;5038605;28;20390;-85
2023/11/21 07:02:18;;;;;;;8.48;1.10;;;;;;;3.65;100.00;102492.56;5038743;28;20029;-85
2023/11/21 07:04:46;;;;;;;8.70;1.10;;;;;;;3.61;100.00;102489.22;5022267;28;20041;-85
2023/11/21 07:07:12;;;;;;;5.45;1.23;;;;;;;3.53;100.00;102497.63;5022869;28;20033;-86
2023/11/21 07:09:38;;;;;;;6.28;1.63;;;;;;;3.43;100.00;102500.91;5005784;28;20041;-85
2023/11/21 07:12:07;;;;;;;2.80;0.85;;;;;;;3.34;100.00;102504.94;5055057;28;20045;-85
2023/11/21 07:14:36;;;;;;;6.13;1.15;;;;;;;3.27;100.00;102507.06;5054508;28;20027;-85
2023/11/21 07:17:02;;;;;;;4.50;1.08;;;;;;;3.23;100.00;102505.56;5054835;28;20033;-85
2023/11/21 07:19:28;;;;;;;3.40;0.90;;;;;;;3.11;100.00;102511.53;5022118;28;20036;-85
2023/11/21 07:21:55;;;;;;;5.68;1.00;;;;;;;3.12;100.00;102521.22;5037859;28;20029;-85
2023/11/21 07:24:22;;;;;;;3.58;0.98;;;;;;;3.11;100.00;102519.50;5038565;28;20029;-85
2023/11/21 07:26:48;;;;;;;4.50;1.02;;;;;;;3.09;100.00;102518.72;5038307;28;20112;-85
2023/11/21 07:29:14;;;;;;;2.67;1.00;;;;;;;3.30;100.00;102516.69;5038337;28;20123;-85
2023/11/21 07:31:41;;;;;;;7.20;1.48;;;;;;;3.55;100.00;102520.63;5038037;28;20024;-85
2023/11/21 07:34:09;;;;;;;7.30;1.27;;;;;;;3.63;100.00;102523.72;5037806;28;20112;-85
2023/11/21 07:36:36;;;;;;;8.27;1.20;;;;;;;3.62;100.00;102537.94;5037846;28;20033;-88
2023/11/21 07:39:02;;;;;;;4.05;0.90;;;;;;;3.61;100.00;102544.22;5021889;28;20028;-85
2023/11/21 07:41:29;;;;;;;2.38;0.82;;;;;;;3.62;100.00;102549.44;5037974;28;20108;-86
2023/11/21 07:43:55;;;;;;;2.50;0.80;;;;;;;3.55;100.00;102541.91;5021841;28;20025;-85
2023/11/21 07:46:22;;;;;;;3.40;1.05;;;;;;;3.52;100.00;102532.31;5038225;28;20123;-86
2023/11/21 07:48:48;;;;;;;2.45;0.80;;;;;;;3.49;100.00;102533.34;5053895;28;20029;-86
2023/11/21 07:51:13;;;;;;;4.38;0.90;;;;;;;3.50;100.00;102523.56;5037751;28;20033;-86
2023/11/21 07:53:39;;;;;;;8.55;1.20;;;;;;;3.50;100.00;102531.53;5020937;28;20119;-84
2023/11/21 07:56:07;;;;;;;4.82;1.55;;;;;;;3.44;100.00;102535.41;5021323;28;20036;-85
2023/11/21 07:58:33;;;;;;;5.03;1.08;;;;;;;3.31;100.00;102531.72;5021467;28;20368;-85
2023/11/21 08:00:59;;;;;;;6.90;1.13;;;;;;;3.28;100.00;102535.41;5020805;28;20132;-85
2023/11/21 08:03:26;;;;;;;9.27;1.25;;;;;;;3.23;100.00;102525.97;5037046;28;20104;-85
2023/11/21 08:05:52;;;;;;;6.07;1.00;;;;;;;3.11;100.00;102527.47;5054580;28;20135;-85
2023/11/21 08:08:18;;;;;;;5.65;1.55;;;;;;;2.97;100.00;102533.56;5020966;28;20502;-85
2023/11/21 08:10:55;;;;;;;3.00;0.98;;;;;;;2.97;100.00;102538.00;5037347;28;20032;-84
2023/11/21 08:13:31;;;;;;;3.60;0.90;;;;;;;2.96;100.00;102549.56;5023033;28;20090;-85
2023/11/21 08:16:01;;;;;;;7.00;1.35;;;;;;;3.00;100.00;102551.97;5037770;28;20037;-85
2023/11/21 08:18:27;;;;;;;6.75;1.25;;;;;;;2.96;100.00;102547.75;5054021;28;20383;-85
2023/11/21 08:20:57;;;;;;;9.88;1.88;;;;;;;2.94;100.00;102546.13;5053672;28;20087;-84
2023/11/21 08:23:26;;;;;;;2.83;0.98;;;;;;;3.00;100.00;102559.09;5020519;28;20043;-85
2023/11/21 08:25:55;;;;;;;5.45;1.77;;;;;;;3.67;100.00;102560.69;5054917;28;20033;-85
2023/11/21 08:28:25;;;;;;;8.98;1.50;;;;;;;4.01;100.00;102565.91;5055682;28;20036;-85
2023/11/21 08:30:57;;;;;;;8.00;1.70;;;;;;;4.06;100.00;102570.00;5058553;28;20039;-85
2023/11/21 08:33:22;;;;;;;9.50;1.40;;;;;;;4.15;100.00;102574.81;5042547;28;20028;-85
2023/11/21 08:35:48;;;;;;;7.78;2.40;;;;;;;4.12;100.00;102579.44;5036917;28;20025;-85
2023/11/21 08:38:14;;;;;;;7.55;2.80;;;;;;;3.87;100.00;102578.19;5020568;28;20129;-85
2023/11/21 08:40:40;;;;;;;13.40;2.60;;;;;;;3.66;100.00;102576.75;5020254;28;20029;-85
2023/11/21 08:43:06;;;;;;;8.63;1.75;;;;;;;3.52;100.00;102578.38;5036449;28;20055;-84
2023/11/21 08:45:35;;;;;;;6.72;1.58;;;;;;;3.43;100.00;102583.34;5053070;28;20387;-83
2023/11/21 08:48:01;;;;;;;10.55;1.75;;;;;;;3.36;100.00;102579.28;5036305;28;20029;-85
2023/11/21 08:50:37;;;;;;;7.65;1.20;;;;;;;3.33;100.00;102585.63;5036412;28;20475;-85
2023/11/21 08:53:03;;;;;;;5.68;1.38;;;;;;;3.36;100.00;102590.81;5036152;28;20048;-85
2023/11/21 08:55:28;;;;;;;7.20;2.13;;;;;;;3.49;100.00;102601.59;5019879;28;20052;-84
2023/11/21 08:57:54;;;;;;;7.47;1.98;;;;;;;3.62;100.00;102602.66;5020035;28;20070;-85
2023/11/21 09:00:20;;;;;;;7.82;2.40;;;;;;;3.72;100.00;102610.97;5054184;28;20028;-85
2023/11/21 09:02:46;;;;;;;11.68;2.75;;;;;;;3.73;100.00;102618.91;5020184;28;20174;-84
2023/11/21 09:05:16;;;;;;;8.50;2.88;;;;;;;3.65;100.00;102604.28;5053052;28;20025;-86
2023/11/21 09:07:46;;;;;;;13.63;3.67;;;;;;;3.81;100.00;102625.56;5036982;28;20035;-85
2023/11/21 09:10:11;;;;;;;14.65;2.88;;;;;;;3.89;100.00;102621.56;5036864;28;20091;-86
2023/11/21 09:12:38;;;;;;;13.93;2.97;;;;;;;3.92;100.00;102609.88;5052742;28;20411;-84
2023/11/21 09:15:05;;;;;;;10.80;2.88;;;;;;;3.94;100.00;102603.53;5035755;28;20037;-86
2023/11/21 09:17:31;;;;;;;8.40;2.95;;;;;;;4.07;100.00;102608.13;5003604;28;20033;-85
2023/11/21 09:19:57;;;;;;;14.70;3.17;;;;;;;4.24;100.00;102610.69;5036454;28;20079;-86
2023/11/21 09:22:24;;;;;;;10.10;2.55;;;;;;;4.35;100.00;102618.91;5053453;28;20112;-85
2023/11/21 09:24:59;;;;;;;11.02;2.92;;;;;;;4.51;100.00;102613.53;5036531;28;20029;-85
2023/11/21 09:27:27;;;;;;;10.80;2.72;;;;;;;4.68;100.00;102601.84;5051707;28;20044;-88
2023/11/21 09:29:53;;;;;;;8.68;2.55;;;;;;;4.91;100.00;102613.78;5051233;28;20048;-87
2023/11/21 09:32:21;;;;;;;8.65;2.80;;;;;;;5.04;100.00;102622.75;5036428;28;20033;-87
2023/11/21 09:35:13;;;;;;;4.95;1.98;;;;;;;5.34;100.00;102615.63;5036111;28;20352;-88
2023/11/21 09:38:05;;;;;;;9.20;2.63;;;;;;;5.48;100.00;102615.63;5042166;28;20083;-88
2023/11/21 09:40:31;;;;;;;8.00;2.88;;;;;;;5.57;100.00;102599.00;5019780;28;20087;-87
2023/11/21 09:42:58;;;;;;;12.25;2.58;;;;;;;5.76;100.00;102620.03;5036243;28;20036;-88
2023/11/21 09:45:29;;;;;;;10.00;3.50;;;;;;;5.83;100.00;102624.03;5035697;28;20066;-88
2023/11/21 09:47:56;;;;;;;10.45;3.47;;;;;;;5.87;100.00;102616.66;5036265;28;20041;-87
2023/11/21 09:50:22;;;;;;;10.23;3.55;;;;;;;5.87;100.00;102611.31;5020141;28;20386;-86
2023/11/21 09:53:02;;;;;;;10.48;3.70;;;;;;;5.91;100.00;102613.69;5021700;28;20116;-87
2023/11/21 09:55:31;;;;;;;16.88;8.20;;;;;;;5.94;100.00;102610.88;5073583;28;20028;-87
2023/11/21 09:57:57;;;;;;;11.88;7.60;;;;;;;5.96;100.00;102615.25;5025782;28;20024;-88
2023/11/21 10:00:27;;;;;;;13.63;7.40;;;;;;;5.96;100.00;102610.78;5052035;28;20033;-88
2023/11/21 10:02:53;;;;;;;5.78;2.70;;;;;;;6.00;100.00;102614.94;5052164;28;20025;-88
2023/11/21 10:05:21;;;;;;;6.35;3.15;;;;;;;6.04;100.00;102619.13;5035936;28;20037;-88
2023/11/21 10:07:49;;;;;;;12.07;3.67;;;;;;;6.06;100.00;102622.56;5052203;28;20115;-88
2023/11/21 10:10:18;;;;;;;14.18;4.82;;;;;;;6.06;100.00;102635.03;5019032;28;20116;-88
2023/11/21 10:12:54;;;;;;;14.13;5.40;;;;;;;6.07;100.00;102642.97;5034948;28;20123;-88
2023/11/21 10:15:25;;;;;;;11.98;4.25;;;;;;;6.07;100.00;102634.09;5018916;28;20040;-88
2023/11/21 10:17:53;;;;;;;10.80;3.50;;;;;;;6.18;100.00;102647.59;5051872;28;20025;-87
2023/11/21 10:20:20;;;;;;;12.43;3.33;;;;;;;6.28;100.00;102645.19;5034136;28;20060;-88
2023/11/21 10:22:45;;;;;;;7.60;2.65;;;;;;;6.40;100.00;102639.00;5051895;28;20032;-88
2023/11/21 10:25:14;;;;;;;8.95;2.75;;;;;;;6.60;100.00;102646.56;5020896;28;20037;-88
2023/11/21 10:27:44;;;;;;;8.93;2.08;;;;;;;6.99;100.00;102647.47;5023420;28;20384;-87
2023/11/21 10:30:11;;;;;;;6.65;2.60;;;;;;;7.31;100.00;102648.88;5024215;28;20116;-88
2023/11/21 10:32:40;;;;;;;7.82;2.03;;;;;;;7.32;100.00;102656.78;5039872;28;20471;-88
2023/11/21 10:35:09;;;;;;;9.40;1.92;;;;;;;7.38;100.00;102664.38;5055370;28;20048;-82
2023/11/21 10:37:43;;;;;;;8.02;1.58;;;;;;;7.42;100.00;102663.19;5039589;28;20037;-81
2023/11/21 10:40:12;;;;;;;7.60;1.73;;;;;;;7.36;100.00;102652.94;5037217;28;20032;-83
2023/11/21 10:42:42;;;;;;;6.75;1.77;;;;;;;7.25;100.00;102643.00;5054296;28;20383;-81
2023/11/21 10:45:14;;;;;;;6.43;1.65;;;;;;;7.25;100.00;102647.47;5055759;28;20043;-82
2023/11/21 10:47:44;;;;;;;5.57;1.50;;;;;;;7.25;100.00;102653.69;5022762;28;20573;-82
2023/11/21 10:50:11;;;;;;;8.40;1.70;;;;;;;7.35;100.00;102661.91;5038792;28;20284;-81
2023/11/21 10:52:46;;;;;;;7.00;1.42;;;;;;;7.47;100.00;102665.56;5038976;28;20033;-82
2023/11/21 10:55:21;;;;;;;7.50;1.50;;;;;;;7.58;100.00;102667.47;5039094;28;20128;-82
2023/11/21 10:58:02;;;;;;;8.48;1.65;;;;;;;7.67;100.00;102666.78;5055111;28;20025;-82
2023/11/21 11:00:28;;;;;;;9.05;1.83;;;;;;;7.83;100.00;102672.78;5022342;28;20116;-82
2023/11/21 11:02:59;;;;;;;7.05;1.60;;;;;;;7.95;100.00;102659.44;5038922;28;20039;-82
2023/11/21 11:05:28;;;;;;;7.88;1.80;;;;;;;7.98;100.00;102652.03;5038810;28;20033;-82
2023/11/21 11:08:05;;;;;;;5.40;2.45;;;;;;;8.03;100.00;102657.91;5054489;28;20036;-83
2023/11/21 11:10:31;;;;;;;4.47;1.58;;;;;;;8.06;100.00;102654.16;5022006;28;20045;-82
2023/11/21 11:12:58;;;;;;;8.40;1.80;;;;;;;8.10;100.00;102652.97;5037750;28;20094;-81
2023/11/21 11:15:26;;;;;;;6.57;2.00;;;;;;;8.20;100.00;102659.34;5054467;28;20095;-82
2023/11/21 11:17:51;;;;;;;9.07;2.30;;;;;;;8.25;100.00;102650.97;5038554;28;20033;-83
2023/11/21 11:20:17;;;;;;;5.05;1.65;;;;;;;8.33;100.00;102651.25;5054760;28;20513;-82
2023/11/21 11:23:01;;;;;;;4.45;1.80;;;;;;;8.43;100.00;102654.97;5022446;28;20032;-83
2023/11/21 11:25:37;;;;;;;7.32;1.90;;;;;;;8.51;100.00;102646.38;5055112;28;20063;-82